Time;durP1;ratioP1;P1;durP2;ratioP2;P2;SDS_P1;SDS_P2;PMS_P1;PMS_P2;Temp;Humidity;BMP_temperature;BMP_pressure;BME280_temperature;BME280_humidity;BME280_pressure;Samples;Min_cycle;Max_cycle;Signal;HPM_P1;HPM_P2
2021/05/06 00:02:05;;;;;;;6.23;1.83;;;;;;;3.14;85.21;95849.78;5077145;28;20451;-78
2021/05/06 00:07:30;;;;;;;5.07;1.83;;;;;;;3.10;85.47;95846.63;5080381;28;20462;-78
2021/05/06 00:34:03;;;;;;;4.73;2.00;;;;;;;3.14;85.07;95849.78;5079434;28;20471;-80
2021/05/06 00:36:29;;;;;;;5.27;1.67;;;;;;;3.22;85.20;95849.97;5060999;28;21013;-78
2021/05/06 00:38:59;;;;;;;4.37;1.87;;;;;;;3.28;84.56;95845.13;5057491;28;20570;-78
2021/05/06 00:57:15;;;;;;;6.80;2.10;;;;;;;3.40;84.12;95832.09;5061019;28;20798;-80
2021/05/06 01:05:53;;;;;;;3.28;1.70;;;;;;;3.50;84.39;95820.81;4990400;28;20497;-79
2021/05/06 01:08:25;;;;;;;7.33;1.77;;;;;;;3.44;84.45;95823.91;4970474;28;20415;-78
2021/05/06 01:13:27;;;;;;;4.70;2.50;;;;;;;3.47;84.41;95821.06;5055805;28;20462;-78
2021/05/06 01:15:53;;;;;;;3.80;1.57;;;;;;;3.47;84.56;95810.66;5058245;28;20520;-78
2021/05/06 01:18:19;;;;;;;4.60;2.17;;;;;;;3.44;85.26;95805.72;5064805;28;21019;-78
2021/05/06 01:20:49;;;;;;;5.43;1.77;;;;;;;3.47;84.84;95796.84;5071510;28;20072;-78
2021/05/06 01:23:17;;;;;;;5.97;1.73;;;;;;;3.52;85.42;95800.72;5050812;28;20562;-79
2021/05/06 01:25:50;;;;;;;5.37;1.67;;;;;;;3.52;84.73;95805.94;5057303;28;20471;-78
2021/05/06 01:28:19;;;;;;;3.55;1.75;;;;;;;3.49;84.51;95803.56;5054003;28;20505;-79
2021/05/06 01:30:49;;;;;;;4.13;1.80;;;;;;;3.52;84.24;95805.06;5043349;28;20094;-78
2021/05/06 01:36:04;;;;;;;4.17;1.70;;;;;;;3.57;83.68;95797.75;5074825;28;20054;-79
2021/05/06 01:41:34;;;;;;;4.00;1.20;;;;;;;3.62;82.95;95794.75;5080365;28;20560;-78
2021/05/06 01:47:12;;;;;;;7.33;1.73;;;;;;;3.58;83.83;95791.56;5064260;28;20475;-78
2021/05/06 01:49:56;;;;;;;4.57;1.80;;;;;;;3.60;83.12;95791.47;5056959;28;20510;-79
2021/05/06 02:00:33;;;;;;;3.72;1.50;;;;;;;3.59;83.67;95784.59;5060134;28;20467;-78
2021/05/06 02:03:16;;;;;;;6.50;2.13;;;;;;;3.61;83.48;95791.31;5062772;28;20045;-78
2021/05/06 02:05:42;;;;;;;3.53;1.60;;;;;;;3.61;83.60;95793.09;5058056;28;20459;-78
2021/05/06 02:08:09;;;;;;;5.93;2.00;;;;;;;3.58;83.43;95790.75;5051200;28;20451;-78
2021/05/06 02:10:43;;;;;;;4.00;1.77;;;;;;;3.54;83.56;95780.59;5057922;28;20462;-80
2021/05/06 02:13:10;;;;;;;4.03;1.80;;;;;;;3.54;84.60;95792.78;5054355;28;20474;-78
2021/05/06 02:15:41;;;;;;;4.93;1.60;;;;;;;3.47;84.57;95787.28;5065409;28;20466;-78
2021/05/06 02:18:07;;;;;;;4.30;1.50;;;;;;;3.48;84.47;95788.91;5063780;28;20455;-78
2021/05/06 02:20:40;;;;;;;5.60;1.70;;;;;;;3.53;84.68;95785.94;5069137;28;20025;-79
2021/05/06 02:23:07;;;;;;;2.53;1.30;;;;;;;3.51;84.84;95788.66;5049772;28;20494;-78
2021/05/06 02:25:33;;;;;;;5.33;1.90;;;;;;;3.52;85.19;95779.06;5057518;28;20028;-79
2021/05/06 02:27:59;;;;;;;4.67;1.77;;;;;;;3.49;84.51;95781.97;5048299;28;20033;-78
2021/05/06 02:30:25;;;;;;;3.70;1.60;;;;;;;3.49;84.58;95774.97;5060430;28;20471;-79
2021/05/06 02:32:51;;;;;;;4.60;1.73;;;;;;;3.49;84.56;95772.38;5068143;28;20041;-78
2021/05/06 02:35:17;;;;;;;4.90;1.70;;;;;;;3.47;85.03;95774.28;5071971;28;20031;-78
2021/05/06 02:37:43;;;;;;;4.30;1.60;;;;;;;3.54;84.33;95772.81;5056839;28;20096;-79
2021/05/06 02:40:10;;;;;;;5.13;2.03;;;;;;;3.64;84.46;95775.47;5067587;28;20079;-78
2021/05/06 02:42:36;;;;;;;6.50;1.60;;;;;;;3.65;83.81;95760.69;5068101;28;20485;-78
2021/05/06 02:45:03;;;;;;;7.53;2.00;;;;;;;3.57;83.50;95758.75;5067881;28;20021;-78
2021/05/06 02:47:29;;;;;;;4.20;1.80;;;;;;;3.66;83.23;95751.97;5070483;28;20044;-78
2021/05/06 02:49:55;;;;;;;4.30;2.03;;;;;;;3.67;82.51;95748.41;5090635;28;20478;-78
2021/05/06 02:54:57;;;;;;;4.03;1.70;;;;;;;3.77;81.98;95749.28;5084085;28;20055;-78
2021/05/06 03:03:12;;;;;;;4.27;1.60;;;;;;;3.88;80.05;95730.16;5020643;28;20481;-79
2021/05/06 03:05:39;;;;;;;6.03;1.60;;;;;;;3.94;78.80;95733.06;5036763;28;20527;-79
2021/05/06 03:23:24;;;;;;;5.33;2.00;;;;;;;3.99;77.87;95715.28;5075009;28;20037;-81
2021/05/06 03:25:50;;;;;;;6.93;2.57;;;;;;;3.97;77.74;95717.19;5061677;28;20068;-77
2021/05/06 03:28:24;;;;;;;6.23;1.77;;;;;;;3.90;78.36;95715.25;5068972;28;20036;-79
2021/05/06 03:42:10;;;;;;;8.67;1.97;;;;;;;3.98;77.54;95710.19;5012861;28;20049;-79
2021/05/06 04:03:38;;;;;;;5.53;1.50;;;;;;;4.03;77.43;95715.84;5065709;28;20044;-79
2021/05/06 04:17:13;;;;;;;4.60;2.13;;;;;;;4.13;77.86;95731.50;5055144;28;20455;-79
2021/05/06 04:27:37;;;;;;;6.87;2.43;;;;;;;4.16;78.34;95744.25;5072890;28;20494;-79
2021/05/06 04:35:38;;;;;;;7.90;2.00;;;;;;;4.11;80.64;95730.78;5079909;28;20037;-79
2021/05/06 04:38:13;;;;;;;5.27;2.10;;;;;;;4.01;80.71;95739.38;5066702;28;20409;-78
2021/05/06 04:41:11;;;;;;;5.60;1.70;;;;;;;3.94;81.13;95727.84;5070539;28;21066;-79
2021/05/06 04:54:48;;;;;;;4.90;1.97;;;;;;;3.85;82.43;95701.78;5081643;28;20032;-78
2021/05/06 05:04:55;;;;;;;5.57;1.93;;;;;;;4.00;81.85;95706.50;5067940;28;20479;-79
2021/05/06 05:25:56;;;;;;;9.70;2.40;;;;;;;4.40;81.35;95702.25;5059222;28;20027;-79
2021/05/06 05:28:22;;;;;;;3.17;1.80;;;;;;;4.79;80.27;95694.47;5042941;28;20044;-81
2021/05/06 05:30:48;;;;;;;3.97;2.17;;;;;;;5.15;80.22;95692.94;5058032;28;20037;-80
2021/05/06 05:33:16;;;;;;;7.43;2.00;;;;;;;5.04;79.16;95695.69;5056808;28;20028;-79
2021/05/06 05:36:07;;;;;;;17.03;9.30;;;;;;;5.12;79.46;95688.81;5063307;28;20020;-78
2021/05/06 05:54:40;;;;;;;4.20;1.90;;;;;;;5.55;76.16;95669.25;5072932;28;20567;-79
2021/05/06 05:57:08;;;;;;;6.47;1.70;;;;;;;5.79;75.08;95665.31;5069358;28;20037;-79
2021/05/06 05:59:37;;;;;;;8.13;1.80;;;;;;;6.35;72.68;95674.84;5051974;28;20043;-78
2021/05/06 06:02:03;;;;;;;4.13;1.57;;;;;;;6.22;72.22;95669.94;5059959;28;20033;-79
2021/05/06 06:04:28;;;;;;;3.90;1.90;;;;;;;6.46;73.56;95673.78;5052285;28;20045;-79
2021/05/06 06:06:54;;;;;;;4.87;1.80;;;;;;;6.40;72.44;95666.53;5050288;28;20033;-79
2021/05/06 06:09:20;;;;;;;4.37;1.60;;;;;;;6.29;72.33;95673.63;5054101;28;20048;-79
2021/05/06 06:11:46;;;;;;;5.90;1.83;;;;;;;6.30;71.44;95675.25;5055972;28;20025;-79
2021/05/06 06:14:12;;;;;;;7.13;1.83;;;;;;;6.56;71.91;95669.31;5069827;28;20485;-78
2021/05/06 06:16:41;;;;;;;4.70;1.83;;;;;;;6.78;72.25;95668.06;5056761;28;20052;-78
2021/05/06 06:19:06;;;;;;;4.60;1.60;;;;;;;7.22;69.74;95653.22;5044898;28;20107;-78
2021/05/06 06:24:08;;;;;;;4.20;1.40;;;;;;;7.70;66.98;95638.81;5069211;28;20552;-80
2021/05/06 06:26:34;;;;;;;7.33;1.80;;;;;;;7.62;66.21;95633.53;5064043;28;20040;-81
2021/05/06 06:29:06;;;;;;;4.87;1.53;;;;;;;7.38;67.28;95633.38;5062682;28;20020;-80
2021/05/06 06:31:40;;;;;;;5.17;1.77;;;;;;;7.38;67.81;95638.59;5053472;28;20560;-81
2021/05/06 06:34:08;;;;;;;3.57;1.60;;;;;;;7.79;68.02;95627.41;5062333;28;20079;-81
2021/05/06 06:36:38;;;;;;;9.20;2.70;;;;;;;7.89;67.30;95626.47;5058123;28;20501;-81
2021/05/06 06:39:05;;;;;;;5.57;1.50;;;;;;;7.75;66.82;95626.06;5066437;28;20477;-81
2021/05/06 06:41:34;;;;;;;7.37;1.83;;;;;;;7.84;67.31;95628.72;5056489;28;20052;-81
2021/05/06 06:44:01;;;;;;;4.03;1.40;;;;;;;7.59;66.49;95639.06;5065333;28;20082;-81
2021/05/06 06:46:27;;;;;;;4.57;2.03;;;;;;;7.38;67.16;95628.16;5038103;28;20028;-80
2021/05/06 06:48:54;;;;;;;4.30;1.63;;;;;;;7.27;68.27;95627.44;5044566;28;20367;-80
2021/05/06 06:51:19;;;;;;;7.97;2.07;;;;;;;7.29;68.92;95622.88;5048124;28;20493;-80
2021/05/06 06:53:45;;;;;;;10.43;2.20;;;;;;;7.14;69.17;95627.00;5078333;28;20032;-80
2021/05/06 06:56:13;;;;;;;8.50;2.10;;;;;;;7.02;68.87;95639.53;5060592;28;20681;-80
2021/05/06 06:58:40;;;;;;;4.10;1.80;;;;;;;6.98;69.18;95624.31;5050454;28;20045;-80
2021/05/06 07:01:07;;;;;;;6.30;1.53;;;;;;;6.99;69.80;95618.91;5052809;28;20084;-78
2021/05/06 07:03:34;;;;;;;8.93;2.73;;;;;;;7.00;71.18;95623.16;5082546;28;20036;-80
2021/05/06 07:05:59;;;;;;;8.80;2.10;;;;;;;6.97;69.50;95620.03;5043383;28;20032;-80
2021/05/06 07:08:32;;;;;;;6.37;1.87;;;;;;;7.01;68.69;95622.22;5041193;28;20116;-79
2021/05/06 07:11:00;;;;;;;3.58;1.40;;;;;;;6.96;70.26;95621.00;5055037;28;20476;-80
2021/05/06 07:13:27;;;;;;;5.27;1.67;;;;;;;6.96;69.35;95627.06;5062293;28;20021;-80
2021/05/06 07:16:00;;;;;;;7.40;2.27;;;;;;;6.92;67.86;95623.09;5069203;28;20033;-79
2021/05/06 07:18:27;;;;;;;9.23;1.83;;;;;;;6.84;66.80;95621.25;5060024;28;20448;-81
2021/05/06 07:20:53;;;;;;;5.33;1.50;;;;;;;6.73;68.36;95629.31;5068125;28;20032;-81
2021/05/06 07:23:20;;;;;;;5.50;1.50;;;;;;;6.76;68.11;95623.78;5072205;28;20092;-78
2021/05/06 07:25:47;;;;;;;8.67;3.43;;;;;;;6.74;68.60;95623.13;5056322;28;20029;-80
2021/05/06 07:28:19;;;;;;;6.87;1.87;;;;;;;6.65;67.72;95631.88;5060668;28;20028;-81
2021/05/06 07:30:50;;;;;;;5.30;1.70;;;;;;;6.63;68.29;95628.56;5067889;28;20608;-80
2021/05/06 07:33:17;;;;;;;6.83;1.70;;;;;;;6.53;70.00;95633.06;5055627;28;20119;-79
2021/05/06 07:35:43;;;;;;;5.23;1.70;;;;;;;6.56;70.26;95628.34;5057239;28;20024;-83
2021/05/06 07:38:11;;;;;;;6.90;2.07;;;;;;;6.72;69.06;95614.63;5064199;28;20137;-80
2021/05/06 07:40:38;;;;;;;5.53;1.53;;;;;;;6.85;69.68;95619.47;5048394;28;20064;-79
2021/05/06 07:43:05;;;;;;;6.00;1.73;;;;;;;6.94;68.94;95625.56;5062875;28;20158;-80
2021/05/06 07:45:31;;;;;;;6.00;1.30;;;;;;;7.00;70.17;95625.78;5070719;28;20060;-80
2021/05/06 07:48:00;;;;;;;7.97;2.53;;;;;;;6.94;70.47;95617.72;5061818;28;20093;-80
2021/05/06 07:50:28;;;;;;;12.13;3.27;;;;;;;6.85;69.69;95620.28;5055808;28;20051;-80
2021/05/06 07:53:02;;;;;;;5.40;1.80;;;;;;;6.90;68.89;95619.81;5060089;28;20025;-80
2021/05/06 07:55:28;;;;;;;9.97;2.63;;;;;;;6.85;70.28;95622.88;5064306;28;20522;-80
2021/05/06 07:57:54;;;;;;;5.63;2.07;;;;;;;6.93;72.02;95616.09;5039701;28;20029;-80
2021/05/06 08:00:21;;;;;;;10.77;2.60;;;;;;;7.04;71.05;95615.81;5058187;28;20033;-80
2021/05/06 08:02:49;;;;;;;11.43;2.33;;;;;;;7.14;71.71;95615.72;5055991;28;20020;-80
2021/05/06 08:05:15;;;;;;;5.13;1.73;;;;;;;7.05;72.73;95612.25;5054166;28;20026;-80
2021/05/06 08:07:41;;;;;;;6.70;1.90;;;;;;;7.05;72.48;95609.66;5057104;28;20532;-79
2021/05/06 08:10:08;;;;;;;7.00;2.33;;;;;;;7.12;72.52;95615.91;5056679;28;20033;-80
2021/05/06 08:12:35;;;;;;;5.47;2.03;;;;;;;7.19;71.58;95598.63;5069193;28;20414;-80
2021/05/06 08:15:02;;;;;;;7.23;2.03;;;;;;;7.19;71.77;95595.19;5053398;28;20499;-79
2021/05/06 08:17:28;;;;;;;5.17;1.83;;;;;;;7.25;72.99;95603.25;5055235;28;20056;-80
2021/05/06 08:19:54;;;;;;;7.63;2.53;;;;;;;7.18;71.54;95599.59;5065701;28;20124;-80
2021/05/06 08:22:20;;;;;;;6.47;2.10;;;;;;;7.19;72.22;95600.41;5054291;28;20032;-80
2021/05/06 08:24:45;;;;;;;6.87;2.00;;;;;;;7.31;71.75;95597.41;5065357;28;20086;-80
2021/05/06 08:27:11;;;;;;;5.70;1.97;;;;;;;7.26;71.24;95607.50;5052409;28;20530;-79
2021/05/06 08:29:37;;;;;;;5.90;1.73;;;;;;;7.14;72.34;95605.28;5049388;28;20037;-80
2021/05/06 08:32:03;;;;;;;6.73;1.57;;;;;;;6.98;70.80;95616.47;5061474;28;20024;-79
2021/05/06 08:34:28;;;;;;;5.57;1.60;;;;;;;6.99;71.10;95618.91;5036414;28;20028;-80
2021/05/06 08:36:54;;;;;;;7.43;2.40;;;;;;;6.94;71.49;95610.72;5046863;28;20024;-81
2021/05/06 08:39:20;;;;;;;6.90;2.23;;;;;;;7.00;70.74;95598.81;5043327;28;20032;-80
2021/05/06 08:41:45;;;;;;;9.60;4.57;;;;;;;7.39;71.16;95611.50;5055533;28;20044;-80
2021/05/06 08:44:15;;;;;;;10.50;4.20;;;;;;;7.29;69.15;95612.41;5058496;28;20029;-80
2021/05/06 08:47:01;;;;;;;12.97;6.33;;;;;;;7.30;69.67;95613.22;5062979;28;20040;-80
2021/05/06 08:49:27;;;;;;;9.57;3.13;;;;;;;7.44;68.21;95611.84;5051341;28;20028;-80
2021/05/06 08:51:53;;;;;;;9.70;2.70;;;;;;;7.53;69.94;95610.91;5056061;28;20032;-80
2021/05/06 08:54:19;;;;;;;6.73;1.93;;;;;;;7.53;68.08;95603.06;5063779;28;20043;-81
2021/05/06 08:56:46;;;;;;;6.17;2.67;;;;;;;7.59;69.09;95599.81;5052659;28;20021;-80
2021/05/06 08:59:11;;;;;;;9.63;4.73;;;;;;;7.52;68.25;95593.59;5058638;28;20047;-80
2021/05/06 09:01:38;;;;;;;8.53;3.33;;;;;;;7.53;68.57;95600.44;5068854;28;20028;-81
2021/05/06 09:04:04;;;;;;;9.83;2.97;;;;;;;7.50;69.30;95596.34;5059424;28;20124;-80
2021/05/06 09:06:31;;;;;;;32.47;22.13;;;;;;;7.37;68.69;95600.34;5049195;28;20227;-80
2021/05/06 09:08:57;;;;;;;8.30;4.30;;;;;;;7.42;69.46;95606.78;5031368;28;20033;-80
2021/05/06 09:11:40;;;;;;;18.57;11.73;;;;;;;7.46;69.18;95604.66;5055220;28;20401;-80
2021/05/06 09:14:10;;;;;;;17.43;8.73;;;;;;;7.41;69.76;95606.91;5061424;28;20398;-81
2021/05/06 09:16:41;;;;;;;14.43;6.93;;;;;;;7.32;69.18;95606.88;5050036;28;20399;-80
2021/05/06 09:19:11;;;;;;;14.03;6.27;;;;;;;7.41;69.64;95604.28;5059350;28;20145;-80
2021/05/06 09:21:40;;;;;;;10.40;7.23;;;;;;;7.45;70.12;95611.69;5064220;28;20175;-80
2021/05/06 09:24:16;;;;;;;12.30;7.50;;;;;;;7.53;70.31;95605.69;5055121;28;20033;-79
2021/05/06 09:26:42;;;;;;;10.70;7.40;;;;;;;7.37;71.49;95605.59;5059712;28;20040;-81
2021/05/06 09:29:10;;;;;;;8.27;3.67;;;;;;;7.39;70.74;95603.66;5060619;28;20566;-81
2021/05/06 09:31:39;;;;;;;8.37;5.53;;;;;;;7.42;69.66;95604.16;5065382;28;20056;-81
2021/05/06 09:34:07;;;;;;;7.90;3.53;;;;;;;7.44;70.08;95596.13;5051408;28;20028;-79
2021/05/06 09:36:34;;;;;;;10.50;4.53;;;;;;;7.38;70.18;95596.75;5053541;28;20071;-81
2021/05/06 09:39:02;;;;;;;10.93;5.60;;;;;;;7.55;70.67;95594.09;5050960;28;20029;-77
2021/05/06 09:41:30;;;;;;;9.43;3.30;;;;;;;7.57;70.12;95593.91;5060571;28;20111;-78
2021/05/06 09:44:10;;;;;;;6.20;2.80;;;;;;;7.41;69.87;95592.06;5054322;28;20389;-78
2021/05/06 09:46:55;;;;;;;15.67;7.63;;;;;;;7.49;70.82;95593.91;5062332;28;20036;-80
2021/05/06 09:49:22;;;;;;;10.37;4.60;;;;;;;7.62;70.85;95589.06;5080942;28;20054;-80
2021/05/06 09:51:50;;;;;;;14.23;5.20;;;;;;;7.42;70.94;95598.94;5059862;28;20090;-80
2021/05/06 09:54:22;;;;;;;6.27;2.67;;;;;;;7.55;71.13;95598.50;5061596;28;20579;-81
2021/05/06 09:56:56;;;;;;;10.37;3.33;;;;;;;7.43;71.26;95595.31;5063068;28;20032;-80
2021/05/06 09:59:25;;;;;;;6.40;2.80;;;;;;;7.47;71.97;95596.66;5043262;28;20124;-79
2021/05/06 10:01:50;;;;;;;6.60;2.27;;;;;;;7.57;70.93;95591.31;5070513;28;20350;-79
2021/05/06 10:04:20;;;;;;;7.83;2.77;;;;;;;7.45;70.65;95587.34;5060862;28;20029;-79
2021/05/06 10:07:07;;;;;;;8.87;1.83;;;;;;;7.37;70.12;95588.09;5060542;28;20033;-80
2021/05/06 10:09:34;;;;;;;5.57;2.27;;;;;;;7.43;70.72;95594.50;5068317;28;20041;-79
2021/05/06 10:12:01;;;;;;;8.33;2.50;;;;;;;7.37;70.50;95595.13;5071674;28;20127;-79
2021/05/06 10:14:28;;;;;;;6.57;2.83;;;;;;;7.34;71.18;95585.78;5070971;28;20021;-79
2021/05/06 10:16:53;;;;;;;6.20;1.90;;;;;;;7.40;70.86;95574.69;5061029;28;20059;-80
2021/05/06 10:19:19;;;;;;;6.77;2.17;;;;;;;7.51;70.68;95568.38;5057881;28;20033;-79
2021/05/06 10:21:46;;;;;;;10.00;2.03;;;;;;;7.40;69.83;95564.25;5068326;28;20389;-80
2021/05/06 10:24:16;;;;;;;5.03;2.00;;;;;;;7.49;70.80;95559.88;5064373;28;20642;-79
2021/05/06 10:26:44;;;;;;;9.27;2.37;;;;;;;7.41;70.05;95570.28;5064992;28;20040;-81
2021/05/06 10:29:10;;;;;;;6.50;1.87;;;;;;;7.46;71.34;95568.84;5059114;28;20059;-78
2021/05/06 10:31:40;;;;;;;6.03;1.90;;;;;;;7.49;72.45;95563.31;5051689;28;20067;-80
2021/05/06 10:34:07;;;;;;;4.93;1.80;;;;;;;7.50;69.53;95577.22;5071900;28;20375;-80
2021/05/06 10:36:34;;;;;;;8.50;2.50;;;;;;;7.41;70.77;95575.53;5062839;28;20060;-80
2021/05/06 10:39:01;;;;;;;5.90;2.37;;;;;;;7.49;70.30;95567.72;5054827;28;20037;-79
2021/05/06 10:41:34;;;;;;;9.50;2.37;;;;;;;7.39;70.29;95561.78;5039643;28;20085;-79
2021/05/06 10:44:06;;;;;;;6.07;1.90;;;;;;;7.50;70.27;95559.72;5057691;28;20039;-81
2021/05/06 10:46:57;;;;;;;8.70;2.33;;;;;;;7.32;69.79;95559.78;5053431;28;20068;-78
2021/05/06 10:49:44;;;;;;;8.33;1.90;;;;;;;7.59;69.87;95568.44;5069310;28;20037;-80
2021/05/06 10:52:11;;;;;;;10.47;4.63;;;;;;;7.60;69.29;95561.41;5023588;28;20033;-80
2021/05/06 10:54:48;;;;;;;149.13;66.23;;;;;;;7.63;70.14;95571.56;5054001;28;20421;-80
2021/05/06 10:57:14;;;;;;;62.27;35.73;;;;;;;7.71;70.49;95563.72;5059940;28;20037;-80
2021/05/06 10:59:45;;;;;;;8.10;2.10;;;;;;;7.61;69.97;95566.47;5068134;28;20033;-80
2021/05/06 11:02:51;;;;;;;6.73;2.63;;;;;;;7.69;69.80;95558.66;5069120;28;20029;-80
2021/05/06 11:05:18;;;;;;;11.93;3.00;;;;;;;7.66;69.18;95553.72;5051731;28;20135;-80
2021/05/06 11:08:03;;;;;;;7.47;2.47;;;;;;;7.75;69.27;95550.19;5058982;28;20147;-80
2021/05/06 11:10:29;;;;;;;9.67;2.20;;;;;;;7.79;69.76;95548.88;5073942;28;20097;-79
2021/05/06 11:12:57;;;;;;;8.40;2.37;;;;;;;7.73;69.35;95554.75;5055297;28;20398;-80
2021/05/06 11:15:24;;;;;;;5.47;2.27;;;;;;;7.50;69.18;95538.78;5071606;28;20040;-80
2021/05/06 11:17:51;;;;;;;7.47;2.83;;;;;;;7.51;69.00;95523.91;5066947;28;20033;-81
2021/05/06 11:20:17;;;;;;;5.67;2.73;;;;;;;7.51;70.07;95527.34;5065720;28;20112;-82
2021/05/06 11:22:46;;;;;;;7.07;2.30;;;;;;;7.59;69.72;95534.41;5054645;28;20471;-80
2021/05/06 11:25:27;;;;;;;6.43;2.13;;;;;;;7.57;69.08;95523.28;5065753;28;20033;-79
2021/05/06 11:27:57;;;;;;;7.40;2.53;;;;;;;7.65;69.11;95515.47;5057216;28;20060;-81
2021/05/06 11:30:30;;;;;;;7.13;2.37;;;;;;;7.71;69.15;95512.22;5065571;28;20033;-79
2021/05/06 11:32:56;;;;;;;6.75;2.53;;;;;;;7.80;68.91;95513.88;5081255;28;20584;-79
2021/05/06 11:35:22;;;;;;;7.03;1.87;;;;;;;7.81;68.28;95509.44;5081090;28;20046;-79
2021/05/06 11:37:54;;;;;;;5.93;1.70;;;;;;;7.72;68.77;95507.81;5060847;28;20052;-79
2021/05/06 11:40:31;;;;;;;5.23;2.50;;;;;;;7.63;69.51;95503.50;5065317;28;20651;-79
2021/05/06 11:42:57;;;;;;;8.03;3.03;;;;;;;7.81;69.29;95488.50;5069645;28;20558;-79
2021/05/06 11:45:31;;;;;;;8.20;3.10;;;;;;;7.72;68.52;95495.53;5064185;28;20039;-80
2021/05/06 11:47:57;;;;;;;7.83;2.20;;;;;;;7.71;68.63;95491.28;5066761;28;20707;-79
2021/05/06 11:50:33;;;;;;;7.47;2.23;;;;;;;7.70;69.60;95494.84;5072031;28;20021;-79
2021/05/06 11:53:00;;;;;;;5.80;2.67;;;;;;;7.98;69.92;95484.13;5057830;28;20064;-79
2021/05/06 11:55:30;;;;;;;8.50;2.40;;;;;;;7.92;69.27;95484.78;5058783;28;20036;-79
2021/05/06 11:57:56;;;;;;;6.57;2.90;;;;;;;7.83;69.66;95483.94;5055300;28;20079;-79
2021/05/06 12:00:30;;;;;;;5.03;2.00;;;;;;;7.74;70.17;95477.03;5070908;28;20031;-81
2021/05/06 12:03:08;;;;;;;6.77;1.90;;;;;;;7.83;70.34;95470.03;5056793;28;20844;-78
2021/05/06 12:05:57;;;;;;;8.43;2.43;;;;;;;8.01;70.21;95462.84;5052139;28;20441;-78
2021/05/06 12:08:29;;;;;;;13.00;2.53;;;;;;;8.17;70.33;95460.25;5059162;28;20040;-79
2021/05/06 12:10:56;;;;;;;8.97;3.10;;;;;;;8.22;70.80;95455.34;5032470;28;20030;-81
2021/05/06 12:13:33;;;;;;;10.53;3.57;;;;;;;8.17;71.30;95456.81;5058288;28;20040;-80
2021/05/06 12:16:17;;;;;;;13.27;6.03;;;;;;;8.28;71.77;95451.22;5052642;28;20395;-80
2021/05/06 12:18:58;;;;;;;10.20;3.40;;;;;;;8.17;70.87;95444.53;5065915;28;20505;-80
2021/05/06 12:21:40;;;;;;;7.17;2.00;;;;;;;8.25;72.51;95439.31;5052276;28;20029;-82
2021/05/06 12:24:09;;;;;;;7.53;3.67;;;;;;;8.52;72.72;95433.88;5044161;28;20036;-80
2021/05/06 12:26:35;;;;;;;4.70;1.83;;;;;;;8.29;72.27;95438.97;5057273;28;20021;-80
2021/05/06 12:29:01;;;;;;;7.93;3.37;;;;;;;8.24;73.94;95435.03;5071875;28;20035;-79
2021/05/06 12:31:27;;;;;;;5.63;2.10;;;;;;;8.06;73.81;95428.34;5072753;28;20025;-80
2021/05/06 12:33:53;;;;;;;8.30;3.60;;;;;;;8.04;74.11;95431.91;5047643;28;20029;-80
2021/05/06 12:36:19;;;;;;;4.77;1.77;;;;;;;8.07;75.28;95428.16;5057453;28;20075;-81
2021/05/06 12:38:48;;;;;;;3.43;1.50;;;;;;;7.91;75.06;95421.09;5069249;28;20032;-80
2021/05/06 12:41:15;;;;;;;3.27;1.40;;;;;;;7.98;76.74;95416.88;5046000;28;20021;-80
2021/05/06 12:43:51;;;;;;;4.00;1.63;;;;;;;7.87;76.34;95405.91;5063025;28;20039;-80
2021/05/06 12:46:24;;;;;;;4.80;1.90;;;;;;;7.89;77.04;95407.38;5057354;28;20044;-80
2021/05/06 12:48:52;;;;;;;;;;;;;;;7.84;77.33;95400.97;5040903;28;20033;-80
2021/05/06 12:51:19;;;;;;;3.73;1.93;;;;;;;7.73;77.02;95395.09;5077145;28;19995;-80
2021/05/06 12:54:04;;;;;;;5.53;2.37;;;;;;;7.88;79.12;95391.81;5061102;28;20057;-82
2021/05/06 12:56:32;;;;;;;3.73;2.17;;;;;;;7.80;77.83;95388.22;5053746;28;20131;-80
2021/05/06 12:59:22;;;;;;;5.73;2.07;;;;;;;7.98;79.40;95382.84;5056407;28;20033;-80
2021/05/06 13:01:48;;;;;;;4.03;1.93;;;;;;;7.94;79.23;95378.91;5057798;28;20123;-80
2021/05/06 13:04:14;;;;;;;8.27;2.73;;;;;;;8.05;78.68;95364.69;5066660;28;20450;-80
2021/05/06 13:06:39;;;;;;;8.57;2.50;;;;;;;8.04;79.14;95371.69;5065675;28;20046;-80
2021/05/06 13:09:16;;;;;;;3.53;1.40;;;;;;;7.94;78.29;95359.75;5063459;28;20065;-82
2021/05/06 13:11:45;;;;;;;15.70;6.77;;;;;;;8.01;79.37;95363.34;5056868;28;20110;-81
2021/05/06 13:14:11;;;;;;;20.97;7.83;;;;;;;8.03;80.18;95356.16;5068247;28;20027;-80
2021/05/06 13:16:39;;;;;;;7.37;2.80;;;;;;;8.11;79.85;95355.31;5062946;28;20029;-80
2021/05/06 13:19:06;;;;;;;3.90;1.70;;;;;;;8.19;80.52;95353.53;5061187;28;20528;-82
2021/05/06 13:21:33;;;;;;;3.97;1.90;;;;;;;8.31;80.17;95350.56;5056354;28;20035;-80
2021/05/06 13:24:00;;;;;;;5.30;2.27;;;;;;;8.02;80.32;95338.81;5067493;28;20021;-81
2021/05/06 13:26:33;;;;;;;6.67;2.00;;;;;;;8.24;81.11;95335.50;5057993;28;20120;-79
2021/05/06 13:29:06;;;;;;;4.18;1.73;;;;;;;8.08;80.05;95338.16;5059851;28;20035;-80
2021/05/06 13:31:35;;;;;;;9.13;5.32;;;;;;;7.83;80.75;95341.78;5067837;28;20105;-80
2021/05/06 13:34:12;;;;;;;17.00;9.17;;;;;;;7.97;81.53;95338.50;5047832;28;20038;-80
2021/05/06 13:36:38;;;;;;;18.37;12.07;;;;;;;7.91;80.66;95332.09;5046501;28;20273;-81
2021/05/06 13:39:06;;;;;;;13.27;8.30;;;;;;;7.93;82.40;95334.56;5044504;28;20040;-80
2021/05/06 13:41:38;;;;;;;3.90;1.73;;;;;;;7.88;82.92;95331.63;5069404;28;20041;-80
2021/05/06 13:44:06;;;;;;;4.20;2.10;;;;;;;7.94;83.11;95320.50;5057116;28;20032;-79
2021/05/06 13:46:33;;;;;;;7.00;2.50;;;;;;;7.86;83.07;95321.31;5050900;28;20505;-80
2021/05/06 13:49:00;;;;;;;6.73;2.40;;;;;;;7.93;82.23;95318.84;5054095;28;20028;-80
2021/05/06 13:51:27;;;;;;;5.40;2.13;;;;;;;7.68;82.14;95316.28;5055008;28;20123;-80
2021/05/06 13:53:54;;;;;;;6.93;2.00;;;;;;;7.83;81.88;95308.56;5059023;28;20115;-82
2021/05/06 13:56:20;;;;;;;3.07;1.60;;;;;;;7.68;82.60;95304.94;5063129;28;20044;-81
2021/05/06 13:58:48;;;;;;;5.30;1.90;;;;;;;7.88;84.15;95308.06;5070800;28;20102;-81
2021/05/06 14:01:15;;;;;;;6.47;1.73;;;;;;;7.69;83.22;95296.97;5058836;28;20013;-80
2021/05/06 14:03:41;;;;;;;5.73;1.97;;;;;;;7.64;83.63;95298.41;5055188;28;20025;-81
2021/05/06 14:06:07;;;;;;;4.50;2.27;;;;;;;7.51;84.91;95297.13;5046119;28;20090;-81
2021/05/06 14:08:33;;;;;;;5.37;2.67;;;;;;;7.64;85.70;95288.78;5065481;28;20032;-80
2021/05/06 14:11:00;;;;;;;10.73;2.50;;;;;;;7.66;85.02;95286.81;5064730;28;20051;-80
2021/05/06 14:13:28;;;;;;;6.00;3.20;;;;;;;7.55;84.85;95285.34;5060792;28;20036;-81
2021/05/06 14:15:54;;;;;;;7.10;3.27;;;;;;;7.65;84.91;95276.53;5066694;28;20021;-80
2021/05/06 14:18:20;;;;;;;6.07;3.10;;;;;;;7.68;86.07;95284.88;5074663;28;20028;-81
2021/05/06 14:20:48;;;;;;;8.23;3.90;;;;;;;7.55;86.19;95268.84;5061145;28;20025;-81
2021/05/06 14:23:17;;;;;;;6.67;3.10;;;;;;;7.62;86.75;95267.19;5077819;28;20036;-79
2021/05/06 14:25:42;;;;;;;5.37;2.70;;;;;;;7.63;86.10;95265.41;5058053;28;20029;-80
2021/05/06 14:28:08;;;;;;;8.23;3.20;;;;;;;7.56;85.65;95257.38;5062541;28;20033;-80
2021/05/06 14:30:34;;;;;;;10.27;4.23;;;;;;;7.38;86.16;95254.09;5062806;28;20127;-80
2021/05/06 14:33:01;;;;;;;10.77;3.93;;;;;;;7.43;86.92;95250.03;5060700;28;20029;-80
2021/05/06 14:35:27;;;;;;;7.07;3.07;;;;;;;7.49;86.64;95245.94;5060682;28;20021;-80
2021/05/06 14:37:54;;;;;;;6.90;2.50;;;;;;;7.51;86.53;95236.13;5054492;28;20115;-80
2021/05/06 14:40:20;;;;;;;5.17;1.93;;;;;;;7.56;85.98;95244.31;5063406;28;20025;-81
2021/05/06 14:42:45;;;;;;;5.53;2.47;;;;;;;7.48;85.95;95236.47;5060986;28;20749;-81
2021/05/06 14:45:12;;;;;;;8.90;2.97;;;;;;;7.35;87.33;95238.75;5053467;28;20092;-81
2021/05/06 14:47:39;;;;;;;6.83;2.07;;;;;;;7.48;86.37;95231.25;5054932;28;20883;-81
2021/05/06 14:50:09;;;;;;;4.53;1.10;;;;;;;7.42;83.71;95232.72;5054743;28;20028;-80
2021/05/06 14:52:35;;;;;;;4.73;1.60;;;;;;;7.33;85.18;95218.00;5076059;28;20063;-79
2021/05/06 14:55:02;;;;;;;4.10;1.47;;;;;;;7.28;85.18;95205.41;5057199;28;20024;-81
2021/05/06 14:57:28;;;;;;;2.57;1.00;;;;;;;7.19;84.95;95213.41;5047514;28;20036;-80
2021/05/06 14:59:53;;;;;;;4.07;1.47;;;;;;;7.20;85.56;95208.00;5055579;28;20124;-79
2021/05/06 15:02:20;;;;;;;7.03;1.60;;;;;;;7.25;85.49;95200.50;5064956;28;20052;-81
2021/05/06 15:04:46;;;;;;;3.77;1.43;;;;;;;7.11;85.59;95198.56;5060970;28;20142;-81
2021/05/06 15:07:11;;;;;;;4.53;1.40;;;;;;;7.07;85.67;95198.03;5059246;28;20037;-81
2021/05/06 15:09:37;;;;;;;4.53;1.67;;;;;;;7.19;85.55;95211.63;5057319;28;20281;-84
2021/05/06 15:12:03;;;;;;;2.17;0.90;;;;;;;7.12;84.92;95208.03;5055873;28;20037;-80
2021/05/06 15:14:29;;;;;;;2.47;0.70;;;;;;;7.09;84.54;95205.75;5069373;28;20029;-82